createdAt,value
2022-11-07T00:00:37.152Z,100058.09
2022-11-07T00:03:04.396Z,100066.63
2022-11-07T00:05:31.181Z,100057.38
2022-11-07T00:07:57.920Z,100062.47
2022-11-07T00:10:24.627Z,100060.13
2022-11-07T00:12:51.603Z,100066.16
2022-11-07T00:15:18.983Z,100057.66
2022-11-07T00:17:45.683Z,100066.22
2022-11-07T00:20:12.641Z,100067.78
2022-11-07T00:22:39.394Z,100061.19
2022-11-07T00:25:06.818Z,100056.91
2022-11-07T00:27:33.592Z,100051.69
2022-11-07T00:30:00.386Z,100061.72
2022-11-07T00:32:27.133Z,100068.72
2022-11-07T00:34:53.810Z,100068.47
2022-11-07T00:37:20.516Z,100061.75
2022-11-07T00:39:47.378Z,100056.56
2022-11-07T00:42:14.096Z,100057.56
2022-11-07T00:44:40.792Z,100049.84
2022-11-07T00:47:07.532Z,100062.06
2022-11-07T00:49:34.259Z,100051.88
2022-11-07T00:52:01.008Z,100057.56
2022-11-07T00:54:27.731Z,100049.38
2022-11-07T00:56:54.464Z,100043.44
2022-11-07T00:59:21.229Z,100041.50
2022-11-07T01:01:48.115Z,100039.19
2022-11-07T01:04:35.226Z,100029.13
2022-11-07T01:07:02.698Z,100032.47
2022-11-07T01:09:29.437Z,100028.06
2022-11-07T01:11:56.175Z,100020.25
2022-11-07T01:14:23.195Z,100027.06
2022-11-07T01:16:50.903Z,100017.94
2022-11-07T01:19:18.977Z,100018.78
2022-11-07T01:21:45.914Z,100007.59
2022-11-07T01:24:13.979Z,100017.84
2022-11-07T01:26:43.092Z,100015.31
2022-11-07T01:29:10.338Z,100005.25
2022-11-07T01:31:37.156Z,100006.97
2022-11-07T01:34:03.957Z,99998.38
2022-11-07T01:36:30.781Z,99993.28
2022-11-07T01:38:57.573Z,99995.78
2022-11-07T01:41:29.387Z,99996.78
2022-11-07T01:44:08.022Z,99986.72
2022-11-07T01:46:40.846Z,99989.78
2022-11-07T01:49:13.246Z,99989.31
2022-11-07T01:51:50.114Z,99991.69
2022-11-07T01:54:21.806Z,99985.59
2022-11-07T01:56:49.018Z,99989.69
2022-11-07T01:59:22.746Z,99994.69
2022-11-07T02:01:49.860Z,99984.22
2022-11-07T02:04:20.167Z,99978.81
2022-11-07T02:06:51.707Z,99985.28
2022-11-07T02:09:18.430Z,99982.22
2022-11-07T02:11:45.181Z,99979.50
2022-11-07T02:14:16.107Z,99978.63
2022-11-07T02:16:43.547Z,99977.63
2022-11-07T02:19:27.304Z,99987.31
2022-11-07T02:22:13.447Z,99977.38
2022-11-07T02:24:41.090Z,99972.28
2022-11-07T02:27:13.302Z,99978.19
2022-11-07T02:29:43.630Z,99976.31
2022-11-07T02:32:12.350Z,99977.53
2022-11-07T02:34:39.358Z,99971.66
2022-11-07T02:37:17.078Z,99964.78
2022-11-07T02:39:43.816Z,99957.47
2022-11-07T02:42:10.752Z,99970.47
2022-11-07T02:44:37.633Z,99962.75
2022-11-07T02:47:04.439Z,99968.19
2022-11-07T02:49:31.225Z,99959.13
2022-11-07T02:51:57.992Z,99957.56
2022-11-07T02:54:24.745Z,99950.81
2022-11-07T02:56:51.449Z,99956.09
2022-11-07T02:59:20.722Z,99949.00
2022-11-07T03:01:49.758Z,99960.03
2022-11-07T03:04:16.610Z,99965.84
2022-11-07T03:06:43.368Z,99953.88
2022-11-07T03:09:10.179Z,99955.84
2022-11-07T03:11:36.882Z,99949.75
2022-11-07T03:14:03.617Z,99950.38
2022-11-07T03:16:30.332Z,99956.41
2022-11-07T03:18:57.026Z,99950.38
2022-11-07T03:21:23.775Z,99948.75
2022-11-07T03:23:50.544Z,99947.22
2022-11-07T03:26:17.543Z,99943.03
2022-11-07T03:28:44.252Z,99938.84
2022-11-07T03:31:11.048Z,99937.06
2022-11-07T03:33:37.907Z,99936.00
2022-11-07T03:36:04.975Z,99938.56
2022-11-07T03:38:31.710Z,99932.69
2022-11-07T03:40:58.495Z,99931.03
2022-11-07T03:43:25.302Z,99926.00
2022-11-07T03:45:52.008Z,99931.03
2022-11-07T03:48:18.759Z,99924.25
2022-11-07T03:50:45.522Z,99940.19
2022-11-07T03:53:12.604Z,99946.13
2022-11-07T03:55:42.104Z,99938.72
2022-11-07T03:58:08.871Z,99942.44
2022-11-07T04:00:35.752Z,99943.00
2022-11-07T04:03:04.425Z,99943.25
2022-11-07T04:05:31.372Z,99948.34
2022-11-07T04:07:58.222Z,99950.84
2022-11-07T04:10:24.947Z,99951.72
2022-11-07T04:13:09.966Z,99952.28
2022-11-07T04:15:57.260Z,99954.94
2022-11-07T04:18:24.118Z,99949.63
2022-11-07T04:20:50.890Z,99949.50
2022-11-07T04:23:17.880Z,99949.38
2022-11-07T04:26:03.192Z,99950.00
2022-11-07T04:28:29.956Z,99948.44
2022-11-07T04:30:56.748Z,99945.78
2022-11-07T04:33:23.594Z,99946.50
2022-11-07T04:35:50.280Z,99952.38
2022-11-07T04:38:17.007Z,99943.88
2022-11-07T04:40:43.717Z,99954.00
2022-11-07T04:43:10.599Z,99946.28
2022-11-07T04:45:38.463Z,99948.25
2022-11-07T04:48:06.467Z,99946.44
2022-11-07T04:50:33.267Z,99940.53
2022-11-07T04:53:00.090Z,99947.41
2022-11-07T04:55:30.705Z,99940.03
2022-11-07T04:57:57.912Z,99945.88
2022-11-07T05:00:25.473Z,99946.38
2022-11-07T05:02:52.688Z,99944.75
2022-11-07T05:05:19.687Z,99941.59
2022-11-07T05:07:47.208Z,99945.00
2022-11-07T05:10:18.848Z,99934.72
2022-11-07T05:12:46.156Z,99938.03
2022-11-07T05:15:13.086Z,99939.75
2022-11-07T05:17:39.839Z,99937.78
2022-11-07T05:20:07.206Z,99932.53
2022-11-07T05:22:56.297Z,99939.63
2022-11-07T05:25:23.280Z,99938.59
2022-11-07T05:27:55.307Z,99928.66
2022-11-07T05:30:21.869Z,99929.78
2022-11-07T05:32:48.600Z,99929.72
2022-11-07T05:35:15.385Z,99942.34
2022-11-07T05:37:42.101Z,99942.34
2022-11-07T05:40:09.334Z,99947.09
2022-11-07T05:42:36.088Z,99946.09
2022-11-07T05:45:02.844Z,99943.59
2022-11-07T05:47:30.192Z,99942.00
2022-11-07T05:49:56.897Z,99944.34
2022-11-07T05:52:23.728Z,99943.50
2022-11-07T05:54:50.415Z,99946.97
2022-11-07T05:57:17.119Z,99946.97
2022-11-07T05:59:43.815Z,99952.94
2022-11-07T06:02:10.665Z,99945.16
2022-11-07T06:04:37.695Z,99950.31
2022-11-07T06:07:04.465Z,99946.06
2022-11-07T06:09:31.197Z,99942.66
2022-11-07T06:11:57.984Z,99950.22
2022-11-07T06:14:24.750Z,99946.06
2022-11-07T06:16:51.601Z,99948.59
2022-11-07T06:19:18.441Z,99946.09
2022-11-07T06:21:45.168Z,99952.06
2022-11-07T06:24:15.211Z,99955.56
2022-11-07T06:26:42.319Z,99960.53
2022-11-07T06:29:09.045Z,99965.78
2022-11-07T06:31:35.796Z,99954.84
2022-11-07T06:34:02.527Z,99969.38
2022-11-07T06:36:29.296Z,99966.00
2022-11-07T06:38:56.127Z,99959.28
2022-11-07T06:41:22.914Z,99959.44
2022-11-07T06:43:52.971Z,99954.41
2022-11-07T06:46:22.693Z,99952.66
2022-11-07T06:48:49.676Z,99947.53
2022-11-07T06:51:16.475Z,99951.66
2022-11-07T06:53:43.391Z,99944.00
2022-11-07T06:56:14.540Z,99940.00
2022-11-07T06:58:41.308Z,99939.06
2022-11-07T07:01:13.247Z,99937.44
2022-11-07T07:03:40.731Z,99944.19
2022-11-07T07:06:11.723Z,99940.88
2022-11-07T07:08:38.882Z,99939.06
2022-11-07T07:11:11.611Z,99937.56
2022-11-07T07:13:38.904Z,99935.94
2022-11-07T07:16:06.591Z,99932.59
2022-11-07T07:18:34.092Z,99927.56
2022-11-07T07:21:12.508Z,99937.06
2022-11-07T07:23:39.923Z,99931.03
2022-11-07T07:26:11.654Z,99938.91
2022-11-07T07:28:38.516Z,99933.66
2022-11-07T07:31:14.498Z,99930.53
2022-11-07T07:33:42.243Z,99926.31
2022-11-07T07:36:09.753Z,99937.44
2022-11-07T07:38:36.743Z,99937.66
2022-11-07T07:41:04.226Z,99940.44
2022-11-07T07:43:31.440Z,99936.31
2022-11-07T07:45:59.890Z,99936.34
2022-11-07T07:48:27.271Z,99933.78
2022-11-07T07:50:54.057Z,99940.78
2022-11-07T07:53:20.965Z,99937.31
2022-11-07T07:55:48.075Z,99937.56
2022-11-07T07:58:15.303Z,99938.66
2022-11-07T08:00:42.563Z,99945.63
2022-11-07T08:03:11.662Z,99946.72
2022-11-07T08:05:39.422Z,99948.16
2022-11-07T08:08:07.895Z,99950.50
2022-11-07T08:10:42.155Z,99939.41
2022-11-07T08:13:09.748Z,99928.25
2022-11-07T08:15:36.551Z,99937.72
2022-11-07T08:18:05.789Z,99934.34
2022-11-07T08:20:32.582Z,99929.34
2022-11-07T08:23:05.214Z,99921.09
2022-11-07T08:25:32.759Z,99915.38
2022-11-07T08:27:59.720Z,99915.72
2022-11-07T08:30:27.061Z,99917.63
2022-11-07T08:32:54.522Z,99923.75
2022-11-07T08:35:21.308Z,99922.53
2022-11-07T08:37:48.010Z,99927.53
2022-11-07T08:40:14.829Z,99929.06
2022-11-07T08:42:41.667Z,99923.84
2022-11-07T08:45:08.937Z,99935.88
2022-11-07T08:47:35.710Z,99927.84
2022-11-07T08:50:02.496Z,99932.47
2022-11-07T08:52:31.508Z,99933.63
2022-11-07T08:54:58.259Z,99918.22
2022-11-07T08:57:24.974Z,99925.84
2022-11-07T08:59:51.763Z,99916.41
2022-11-07T09:05:05.566Z,99926.28
2022-11-07T09:07:32.368Z,99921.41
2022-11-07T09:09:59.119Z,99928.22
2022-11-07T09:12:26.030Z,99924.00
2022-11-07T09:14:52.801Z,99914.44
2022-11-07T09:17:19.543Z,99919.56
2022-11-07T09:19:46.249Z,99916.41
2022-11-07T09:22:13.028Z,99915.19
2022-11-07T09:24:39.743Z,99920.69
2022-11-07T09:27:06.465Z,99923.22
2022-11-07T09:29:33.158Z,99922.53
2022-11-07T09:32:11.930Z,99912.44
2022-11-07T09:34:49.355Z,99905.44
2022-11-07T09:37:20.941Z,99910.38
2022-11-07T09:39:48.375Z,99912.91
2022-11-07T09:42:26.845Z,99908.72
2022-11-07T09:44:58.460Z,99914.03
2022-11-07T09:47:38.910Z,99903.00
2022-11-07T09:50:17.566Z,99897.81
2022-11-07T09:52:52.627Z,99895.59
2022-11-07T09:55:27.323Z,99894.88
2022-11-07T09:58:00.763Z,99892.41
2022-11-07T10:00:30.360Z,99890.88
2022-11-07T10:02:58.980Z,99909.53
2022-11-07T10:05:36.371Z,99906.69
2022-11-07T10:08:05.790Z,99893.25
2022-11-07T10:10:59.907Z,99903.91
2022-11-07T10:13:47.751Z,99904.69
2022-11-07T10:16:36.101Z,99893.88
2022-11-07T10:19:27.737Z,99898.78
2022-11-07T10:22:22.246Z,99889.41
2022-11-07T10:25:21.451Z,99890.19
2022-11-07T10:28:05.319Z,99883.94
2022-11-07T10:30:32.142Z,99884.69
2022-11-07T10:33:06.895Z,99889.91
2022-11-07T10:35:38.169Z,99899.28
2022-11-07T10:38:19.466Z,99883.03
2022-11-07T10:40:47.636Z,99877.72
2022-11-07T10:43:36.346Z,99882.91
2022-11-07T10:46:05.407Z,99884.38
2022-11-07T10:48:33.265Z,99877.72
2022-11-07T10:51:00.004Z,99874.25
2022-11-07T10:53:26.856Z,99873.38
2022-11-07T10:55:55.886Z,99874.25
2022-11-07T10:58:25.670Z,99881.09
2022-11-07T11:01:03.694Z,99882.91
2022-11-07T11:03:45.335Z,99891.44
2022-11-07T11:06:23.212Z,99885.25
2022-11-07T11:08:52.303Z,99889.38
2022-11-07T11:11:22.020Z,99879.03
2022-11-07T11:13:49.362Z,99887.31
2022-11-07T11:16:27.011Z,99883.78
2022-11-07T11:19:01.375Z,99879.66
2022-11-07T11:21:42.321Z,99882.22
2022-11-07T11:24:22.455Z,99882.22
2022-11-07T11:26:52.257Z,99878.00
2022-11-07T11:29:29.968Z,99879.94
2022-11-07T11:31:58.926Z,99884.16
2022-11-07T11:34:35.892Z,99876.75
2022-11-07T11:37:11.059Z,99869.16
2022-11-07T11:39:42.956Z,99857.28
2022-11-07T11:42:19.730Z,99869.44
2022-11-07T11:44:46.760Z,99862.09
2022-11-07T11:47:34.524Z,99864.94
2022-11-07T11:50:15.948Z,99863.91
2022-11-07T11:52:43.175Z,99866.38
2022-11-07T11:55:17.835Z,99865.44
2022-11-07T11:58:17.022Z,99868.72
2022-11-07T12:00:58.892Z,99858.50
2022-11-07T12:03:44.429Z,99857.00
2022-11-07T12:06:31.732Z,99857.16
2022-11-07T12:09:23.922Z,99848.81
2022-11-07T12:12:01.499Z,99852.03
2022-11-07T12:14:38.386Z,99852.28
2022-11-07T12:17:10.801Z,99854.84
2022-11-07T12:19:50.494Z,99860.78
2022-11-07T12:22:39.396Z,99859.09
2022-11-07T12:25:42.436Z,99859.28
2022-11-07T12:28:27.136Z,99862.38
2022-11-07T12:30:56.776Z,99849.53
2022-11-07T12:33:30.289Z,99844.53
2022-11-07T12:36:25.602Z,99842.88
2022-11-07T12:39:21.496Z,99840.38
2022-11-07T12:41:48.269Z,99846.75
2022-11-07T12:44:45.796Z,99843.47
2022-11-07T12:47:30.232Z,99850.00
2022-11-07T12:50:27.986Z,99845.72
2022-11-07T12:53:32.136Z,99839.56
2022-11-07T12:56:22.244Z,99843.56
2022-11-07T12:58:51.385Z,99843.25
2022-11-07T13:01:24.931Z,99842.44
2022-11-07T13:04:19.925Z,99847.75
2022-11-07T13:06:46.545Z,99843.41
2022-11-07T13:09:39.580Z,99841.97
2022-11-07T13:12:23.139Z,99849.50
2022-11-07T13:14:50.469Z,99839.91
2022-11-07T13:17:30.620Z,99847.63
2022-11-07T13:20:02.026Z,99844.94
2022-11-07T13:22:41.321Z,99844.16
2022-11-07T13:25:22.047Z,99850.13
2022-11-07T13:27:57.875Z,99851.22
2022-11-07T13:30:30.565Z,99842.75
2022-11-07T13:32:58.964Z,99846.78
2022-11-07T13:35:30.056Z,99840.81
2022-11-07T13:38:08.534Z,99847.69
2022-11-07T13:41:03.904Z,99848.63
2022-11-07T13:44:00.327Z,99844.16
2022-11-07T13:46:47.979Z,99837.34
2022-11-07T13:49:22.682Z,99848.38
2022-11-07T13:51:54.316Z,99847.63
2022-11-07T13:54:48.271Z,99844.41
2022-11-07T13:57:31.512Z,99848.63
2022-11-07T14:00:14.044Z,99840.94
2022-11-07T14:02:56.718Z,99847.88
2022-11-07T14:05:27.044Z,99851.78
2022-11-07T14:08:02.556Z,99843.31
2022-11-07T14:10:38.933Z,99833.13
2022-11-07T14:13:10.715Z,99841.47
2022-11-07T14:15:46.970Z,99841.53
2022-11-07T14:18:18.756Z,99835.59
2022-11-07T14:20:51.223Z,99826.22
2022-11-07T14:23:22.594Z,99830.59
2022-11-07T14:26:01.019Z,99827.09
2022-11-07T14:28:46.057Z,99827.19
2022-11-07T14:31:32.344Z,99825.59
2022-11-07T14:34:12.806Z,99826.56
2022-11-07T14:36:54.903Z,99825.03
2022-11-07T14:39:22.623Z,99831.06
2022-11-07T14:41:50.479Z,99826.56
2022-11-07T14:44:28.427Z,99829.91
2022-11-07T14:47:04.364Z,99838.38
2022-11-07T14:49:41.706Z,99830.03
2022-11-07T14:52:35.528Z,99825.78
2022-11-07T14:55:18.381Z,99827.59
2022-11-07T14:57:45.284Z,99823.31
2022-11-07T15:00:15.300Z,99817.38
2022-11-07T15:02:42.507Z,99814.69
2022-11-07T15:05:42.368Z,99817.38
2022-11-07T15:08:25.222Z,99812.19
2022-11-07T15:11:00.905Z,99820.66
2022-11-07T15:13:32.976Z,99810.31
2022-11-07T15:16:18.082Z,99818.16
2022-11-07T15:18:48.764Z,99813.78
2022-11-07T15:21:40.770Z,99808.91
2022-11-07T15:24:42.520Z,99803.69
2022-11-07T15:27:20.686Z,99809.63
2022-11-07T15:29:54.601Z,99809.63
2022-11-07T15:32:24.240Z,99812.19
2022-11-07T15:37:41.440Z,99815.34
2022-11-07T15:40:28.247Z,99806.22
2022-11-07T15:42:55.098Z,99812.81
2022-11-07T15:45:21.823Z,99807.72
2022-11-07T15:47:49.425Z,99808.56
2022-11-07T15:50:20.209Z,99813.72
2022-11-07T15:52:48.266Z,99806.84
2022-11-07T15:55:19.747Z,99806.09
2022-11-07T15:57:48.996Z,99808.69
2022-11-07T16:00:18.137Z,99805.31
2022-11-07T16:02:45.695Z,99807.94
2022-11-07T16:05:13.606Z,99805.44
2022-11-07T16:07:42.552Z,99796.00
2022-11-07T16:10:21.784Z,99790.28
2022-11-07T16:12:50.177Z,99796.91
2022-11-07T16:15:18.931Z,99798.78
2022-11-07T16:17:46.328Z,99795.28
2022-11-07T16:20:19.093Z,99795.50
2022-11-07T16:22:47.112Z,99786.00
2022-11-07T16:25:21.338Z,99788.56
2022-11-07T16:27:54.995Z,99780.03
2022-11-07T16:30:23.134Z,99781.69
2022-11-07T16:32:49.934Z,99771.34
2022-11-07T16:35:16.738Z,99766.25
2022-11-07T16:37:43.443Z,99770.38
2022-11-07T16:40:19.313Z,99767.13
2022-11-07T16:42:47.432Z,99766.06
2022-11-07T16:45:20.544Z,99764.53
2022-11-07T16:47:47.722Z,99762.66
2022-11-07T16:50:16.245Z,99766.06
2022-11-07T16:52:43.119Z,99762.47
2022-11-07T16:55:17.958Z,99760.09
2022-11-07T16:57:45.267Z,99762.47
2022-11-07T17:00:24.634Z,99761.69
2022-11-07T17:02:51.748Z,99765.66
2022-11-07T17:05:18.775Z,99760.53
2022-11-07T17:07:45.612Z,99763.91
2022-11-07T17:10:18.965Z,99760.66
2022-11-07T17:12:45.774Z,99761.34
2022-11-07T17:15:12.715Z,99759.56
2022-11-07T17:17:40.243Z,99756.25
2022-11-07T17:20:07.673Z,99750.31
2022-11-07T17:22:34.499Z,99752.81
2022-11-07T17:25:01.562Z,99755.44
2022-11-07T17:27:30.343Z,99757.88
2022-11-07T17:29:57.366Z,99760.53
2022-11-07T17:32:24.108Z,99751.09
2022-11-07T17:35:10.985Z,99756.16
2022-11-07T17:37:38.319Z,99748.50
2022-11-07T17:40:06.346Z,99751.97
2022-11-07T17:42:37.732Z,99747.81
2022-11-07T17:45:05.865Z,99755.44
2022-11-07T17:47:34.437Z,99752.03
2022-11-07T17:50:01.563Z,99751.19
2022-11-07T17:52:30.636Z,99755.44
2022-11-07T17:54:57.671Z,99739.19
2022-11-07T17:57:24.444Z,99732.28
2022-11-07T17:59:51.782Z,99742.59
2022-11-07T18:02:19.956Z,99742.72
2022-11-07T18:04:46.810Z,99737.66
2022-11-07T18:07:13.601Z,99743.56
2022-11-07T18:09:40.927Z,99745.31
2022-11-07T18:12:08.242Z,99740.97
2022-11-07T18:14:35.204Z,99734.97
2022-11-07T18:17:02.089Z,99733.22
2022-11-07T18:19:29.280Z,99734.13
2022-11-07T18:21:56.085Z,99731.53
2022-11-07T18:24:22.855Z,99723.00
2022-11-07T18:26:51.070Z,99729.81
2022-11-07T18:29:18.766Z,99723.13
2022-11-07T18:31:47.461Z,99721.41
2022-11-07T18:34:14.577Z,99729.88
2022-11-07T18:36:44.004Z,99736.81
2022-11-07T18:39:22.033Z,99723.22
2022-11-07T18:41:50.695Z,99724.88
2022-11-07T18:44:18.179Z,99720.63
2022-11-07T18:46:45.781Z,99719.75
2022-11-07T18:49:18.786Z,99714.69
2022-11-07T18:51:45.720Z,99711.25
2022-11-07T18:54:16.138Z,99707.88
2022-11-07T18:56:43.648Z,99713.19
2022-11-07T18:59:11.084Z,99713.19
2022-11-07T19:01:38.102Z,99712.31
2022-11-07T19:04:05.970Z,99703.91
2022-11-07T19:06:33.260Z,99708.16
2022-11-07T19:09:00.264Z,99704.81
2022-11-07T19:11:29.836Z,99709.25
2022-11-07T19:14:01.520Z,99713.47
2022-11-07T19:16:29.048Z,99708.16
2022-11-07T19:18:55.835Z,99697.13
2022-11-07T19:21:23.597Z,99696.19
2022-11-07T19:23:51.041Z,99703.88
2022-11-07T19:26:21.486Z,99708.06
2022-11-07T19:28:48.573Z,99705.50
2022-11-07T19:31:15.586Z,99705.38
2022-11-07T19:33:43.735Z,99702.00
2022-11-07T19:36:20.080Z,99700.34
2022-11-07T19:38:47.165Z,99702.78
2022-11-07T19:41:16.899Z,99694.38
2022-11-07T19:43:48.527Z,99697.66
2022-11-07T19:46:18.523Z,99701.13
2022-11-07T19:48:45.471Z,99695.91
2022-11-07T19:51:21.047Z,99698.63
2022-11-07T19:53:53.799Z,99691.00
2022-11-07T19:56:20.400Z,99698.06
2022-11-07T19:58:47.197Z,99692.56
2022-11-07T20:01:16.937Z,99688.25
2022-11-07T20:03:48.987Z,99690.06
2022-11-07T20:06:17.056Z,99681.81
2022-11-07T20:08:46.121Z,99683.25
2022-11-07T20:11:14.987Z,99678.22
2022-11-07T20:13:42.532Z,99674.75
2022-11-07T20:16:10.331Z,99668.00
2022-11-07T20:18:38.254Z,99665.44
2022-11-07T20:21:09.854Z,99663.00
2022-11-07T20:23:36.571Z,99658.69
2022-11-07T20:26:11.673Z,99672.44
2022-11-07T20:28:38.691Z,99659.44
2022-11-07T20:31:13.043Z,99656.19
2022-11-07T20:33:39.984Z,99650.13
2022-11-07T20:36:10.088Z,99648.38
2022-11-07T20:38:37.436Z,99644.03
2022-11-07T20:41:05.417Z,99648.38
2022-11-07T20:43:33.923Z,99644.91
2022-11-07T20:46:06.072Z,99650.13
2022-11-07T20:48:33.842Z,99645.84
2022-11-07T20:51:08.859Z,99651.13
2022-11-07T20:53:37.605Z,99645.91
2022-11-07T20:56:07.028Z,99645.97
2022-11-07T20:58:37.334Z,99644.41
2022-11-07T21:01:05.519Z,99641.00
2022-11-07T21:03:34.280Z,99638.50
2022-11-07T21:06:01.179Z,99630.75
2022-11-07T21:08:30.681Z,99626.53
2022-11-07T21:10:59.795Z,99625.88
2022-11-07T21:13:26.506Z,99628.19
2022-11-07T21:15:53.220Z,99628.19
2022-11-07T21:18:19.970Z,99626.53
2022-11-07T21:20:47.023Z,99619.81
2022-11-07T21:23:15.803Z,99619.81
2022-11-07T21:25:45.244Z,99613.09
2022-11-07T21:28:17.584Z,99605.41
2022-11-07T21:30:46.255Z,99594.25
2022-11-07T21:33:13.228Z,99585.72
2022-11-07T21:35:41.879Z,99590.84
2022-11-07T21:38:08.723Z,99594.22
2022-11-07T21:40:36.381Z,99596.78
2022-11-07T21:43:03.704Z,99590.84
2022-11-07T21:45:30.446Z,99585.63
2022-11-07T21:47:57.228Z,99585.63
2022-11-07T21:50:43.560Z,99579.72
2022-11-07T21:53:10.697Z,99584.00
2022-11-07T21:55:37.469Z,99579.75
2022-11-07T21:58:04.215Z,99583.16
2022-11-07T22:00:35.858Z,99585.72
2022-11-07T22:03:04.492Z,99596.84
2022-11-07T22:05:31.281Z,99592.66
2022-11-07T22:07:58.056Z,99594.41
2022-11-07T22:10:24.830Z,99597.91
2022-11-07T22:12:52.503Z,99594.56
2022-11-07T22:15:19.219Z,99589.44
2022-11-07T22:17:45.934Z,99590.38
2022-11-07T22:20:12.990Z,99593.78
2022-11-07T22:22:39.782Z,99588.72
2022-11-07T22:25:06.940Z,99584.53
2022-11-07T22:27:33.649Z,99573.38
2022-11-07T22:30:00.334Z,99577.66
2022-11-07T22:32:27.111Z,99569.19
2022-11-07T22:34:53.790Z,99563.16
2022-11-07T22:37:20.541Z,99572.53
2022-11-07T22:39:47.340Z,99567.44
2022-11-07T22:42:14.092Z,99565.72
2022-11-07T22:44:40.859Z,99560.66
2022-11-07T22:47:07.661Z,99557.28
2022-11-07T22:49:34.444Z,99560.66
2022-11-07T22:52:01.370Z,99551.28
2022-11-07T22:54:28.195Z,99553.84
2022-11-07T22:56:54.931Z,99548.72
2022-11-07T22:59:21.673Z,99546.97
2022-11-07T23:01:49.104Z,99540.13
2022-11-07T23:04:18.136Z,99546.16
2022-11-07T23:06:45.226Z,99543.59
2022-11-07T23:09:15.953Z,99542.03
2022-11-07T23:11:48.314Z,99539.47
2022-11-07T23:14:18.748Z,99542.03
2022-11-07T23:16:48.690Z,99531.75
2022-11-07T23:19:17.441Z,99525.81
2022-11-07T23:21:44.307Z,99528.34
2022-11-07T23:24:11.287Z,99526.69
2022-11-07T23:26:38.643Z,99526.75
2022-11-07T23:29:11.674Z,99526.69
2022-11-07T23:31:43.612Z,99520.00
2022-11-07T23:34:10.666Z,99518.19
2022-11-07T23:36:40.792Z,99519.13
2022-11-07T23:39:10.082Z,99518.28
2022-11-07T23:41:36.838Z,99523.34
2022-11-07T23:44:03.772Z,99519.06
2022-11-07T23:46:49.109Z,99523.38
2022-11-07T23:49:34.608Z,99524.38
2022-11-07T23:52:01.623Z,99520.16
2022-11-07T23:54:46.814Z,99514.09
2022-11-07T23:57:14.075Z,99503.91
2022-11-07T23:59:59.544Z,99497.84
